createdAt,value
2023-03-13T00:01:02.776Z,-91
2023-03-13T00:03:32.951Z,-89
2023-03-13T00:06:01.981Z,-90
2023-03-13T00:08:33.561Z,-90
2023-03-13T00:11:06.817Z,-91
2023-03-13T00:23:12.458Z,-93
2023-03-13T00:38:21.562Z,-92
2023-03-13T00:42:46.974Z,-92
2023-03-13T00:45:01.804Z,-92
2023-03-13T00:48:00.142Z,-92
2023-03-13T00:55:13.009Z,-93
2023-03-13T02:06:25.422Z,-93
2023-03-13T02:34:00.840Z,-93
2023-03-13T02:41:42.566Z,-93
2023-03-13T02:44:09.757Z,-92
2023-03-13T02:47:07.449Z,-92
2023-03-13T03:26:49.898Z,-91
2023-03-13T03:36:20.787Z,-91
2023-03-13T03:42:15.236Z,-91
2023-03-13T03:45:07.648Z,-92
2023-03-13T03:48:04.688Z,-91
2023-03-13T03:55:35.062Z,-91
2023-03-13T03:58:55.159Z,-92
2023-03-13T04:04:50.247Z,-91
2023-03-13T04:07:37.383Z,-92
2023-03-13T04:10:18.202Z,-92
2023-03-13T04:13:16.366Z,-92
2023-03-13T04:15:50.138Z,-90
2023-03-13T04:18:19.058Z,-90
2023-03-13T04:20:49.552Z,-91
2023-03-13T04:23:21.103Z,-90
2023-03-13T04:26:18.490Z,-91
2023-03-13T04:30:32.473Z,-91
2023-03-13T04:38:15.048Z,-91
2023-03-13T04:40:57.784Z,-90
2023-03-13T04:43:39.398Z,-90
2023-03-13T04:46:23.325Z,-91
2023-03-13T04:49:26.296Z,-91
2023-03-13T04:52:12.762Z,-90
2023-03-13T04:54:54.909Z,-92
2023-03-13T04:58:12.432Z,-91
2023-03-13T05:00:56.335Z,-91
2023-03-13T05:03:41.397Z,-92
2023-03-13T05:07:00.537Z,-93
2023-03-13T05:09:41.311Z,-92
2023-03-13T05:15:32.598Z,-92
2023-03-13T05:18:01.686Z,-91
2023-03-13T05:20:32.818Z,-90
2023-03-13T05:23:02.152Z,-91
2023-03-13T05:25:35.198Z,-91
2023-03-13T05:28:08.059Z,-92
2023-03-13T05:30:47.923Z,-91
2023-03-13T05:33:17.365Z,-92
2023-03-13T05:35:54.564Z,-92
2023-03-13T05:38:23.967Z,-91
2023-03-13T05:40:53.046Z,-91
2023-03-13T05:47:05.093Z,-92
2023-03-13T05:49:44.100Z,-92
2023-03-13T05:52:22.365Z,-90
2023-03-13T05:54:51.407Z,-91
2023-03-13T05:58:46.426Z,-92
2023-03-13T06:00:53.131Z,-90
2023-03-13T06:03:22.013Z,-89
2023-03-13T06:05:59.519Z,-87
2023-03-13T06:08:29.797Z,-89
2023-03-13T06:11:08.245Z,-90
2023-03-13T06:13:51.191Z,-91
2023-03-13T06:16:22.745Z,-90
2023-03-13T06:19:01.675Z,-92
2023-03-13T06:21:32.536Z,-91
2023-03-13T06:24:02.770Z,-90
2023-03-13T06:26:45.844Z,-91
2023-03-13T06:29:14.628Z,-90
2023-03-13T06:31:43.849Z,-91
2023-03-13T06:34:13.606Z,-90
2023-03-13T06:36:43.715Z,-90
2023-03-13T06:39:24.976Z,-90
2023-03-13T06:41:53.849Z,-90
2023-03-13T06:44:22.877Z,-89
2023-03-13T06:46:51.742Z,-89
2023-03-13T06:49:20.675Z,-90
2023-03-13T06:51:51.548Z,-89
2023-03-13T06:54:22.647Z,-89
2023-03-13T06:56:53.445Z,-88
2023-03-13T06:59:22.347Z,-89
2023-03-13T07:01:51.216Z,-90
2023-03-13T07:04:23.665Z,-90
2023-03-13T07:06:56.048Z,-90
2023-03-13T07:09:26.692Z,-89
2023-03-13T07:12:36.130Z,-90
2023-03-13T08:03:50.935Z,-91
2023-03-13T09:04:40.016Z,-92
2023-03-13T09:06:42.537Z,-88
2023-03-13T09:09:45.115Z,-90
2023-03-13T09:12:30.073Z,-89
2023-03-13T09:15:02.491Z,-88
2023-03-13T09:17:55.863Z,-90
2023-03-13T09:20:34.417Z,-89
2023-03-13T09:23:10.061Z,-89
2023-03-13T09:26:00.792Z,-88
2023-03-13T09:28:54.295Z,-89
2023-03-13T09:34:53.279Z,-90
2023-03-13T09:37:52.270Z,-89
2023-03-13T09:40:29.360Z,-88
2023-03-13T09:43:03.920Z,-88
2023-03-13T09:47:31.541Z,-89
2023-03-13T09:48:55.247Z,-89
2023-03-13T09:51:31.208Z,-86
2023-03-13T09:54:09.937Z,-86
2023-03-13T09:56:48.360Z,-87
2023-03-13T09:59:28.925Z,-88
2023-03-13T10:02:12.161Z,-88
2023-03-13T10:04:51.366Z,-88
2023-03-13T10:07:21.642Z,-88
2023-03-13T10:09:53.771Z,-88
2023-03-13T10:12:38.638Z,-88
2023-03-13T10:15:34.024Z,-88
2023-03-13T10:18:14.959Z,-88
2023-03-13T10:20:47.277Z,-87
2023-03-13T10:23:22.605Z,-87
2023-03-13T10:25:52.674Z,-87
2023-03-13T10:28:22.700Z,-88
2023-03-13T10:30:58.479Z,-87
2023-03-13T10:33:29.625Z,-87
2023-03-13T10:36:06.439Z,-87
2023-03-13T10:38:46.416Z,-87
2023-03-13T10:41:30.530Z,-87
2023-03-13T10:44:04.568Z,-88
2023-03-13T10:46:35.990Z,-88
2023-03-13T10:49:15.262Z,-87
2023-03-13T10:51:51.911Z,-87
2023-03-13T10:54:26.118Z,-88
2023-03-13T10:57:22.440Z,-88
2023-03-13T10:59:55.016Z,-87
2023-03-13T11:02:29.085Z,-88
2023-03-13T11:04:59.946Z,-88
2023-03-13T11:07:36.190Z,-88
2023-03-13T11:10:23.504Z,-87
2023-03-13T11:12:55.715Z,-87
2023-03-13T11:15:33.904Z,-88
2023-03-13T11:18:13.919Z,-88
2023-03-13T11:20:52.578Z,-88
2023-03-13T11:23:29.103Z,-88
2023-03-13T11:26:10.332Z,-88
2023-03-13T11:28:54.509Z,-88
2023-03-13T11:31:30.820Z,-88
2023-03-13T11:34:07.852Z,-87
2023-03-13T11:36:44.463Z,-87
2023-03-13T11:39:42.582Z,-88
2023-03-13T11:42:49.583Z,-87
2023-03-13T11:46:18.127Z,-87
2023-03-13T11:49:41.006Z,-87
2023-03-13T11:52:31.642Z,-87
2023-03-13T11:55:34.908Z,-88
2023-03-13T11:58:33.702Z,-88
2023-03-13T12:01:11.621Z,-87
2023-03-13T12:03:49.905Z,-87
2023-03-13T12:06:31.715Z,-87
2023-03-13T12:09:10.845Z,-88
2023-03-13T12:11:47.250Z,-88
2023-03-13T12:14:23.746Z,-88
2023-03-13T12:17:00.527Z,-87
2023-03-13T12:19:37.427Z,-89
2023-03-13T12:22:18.934Z,-88
2023-03-13T12:24:57.029Z,-88
2023-03-13T12:27:33.611Z,-88
2023-03-13T12:30:08.226Z,-87
2023-03-13T12:32:44.352Z,-88
2023-03-13T12:35:25.053Z,-88
2023-03-13T12:38:06.096Z,-88
2023-03-13T12:40:42.699Z,-87
2023-03-13T12:43:20.263Z,-88
2023-03-13T12:46:21.549Z,-87
2023-03-13T12:49:30.906Z,-87
2023-03-13T12:52:48.719Z,-87
2023-03-13T12:55:58.301Z,-85
2023-03-13T12:58:44.353Z,-87
2023-03-13T13:01:26.740Z,-86
2023-03-13T13:04:02.701Z,-86
2023-03-13T13:06:55.162Z,-86
2023-03-13T13:09:26.320Z,-86
2023-03-13T13:11:59.103Z,-86
2023-03-13T13:15:06.304Z,-86
2023-03-13T13:18:13.827Z,-86
2023-03-13T13:20:50.002Z,-86
2023-03-13T13:23:37.698Z,-86
2023-03-13T13:26:50.016Z,-86
2023-03-13T13:29:57.719Z,-86
2023-03-13T13:32:42.742Z,-87
2023-03-13T13:35:33.357Z,-86
2023-03-13T13:38:39.835Z,-86
2023-03-13T13:41:38.795Z,-86
2023-03-13T13:44:37.331Z,-85
2023-03-13T13:47:06.155Z,-85
2023-03-13T13:49:54.463Z,-86
2023-03-13T13:52:42.158Z,-86
2023-03-13T13:55:46.109Z,-86
2023-03-13T13:58:21.441Z,-86
2023-03-13T14:00:56.981Z,-86
2023-03-13T14:03:27.791Z,-86
2023-03-13T14:06:01.110Z,-86
2023-03-13T14:08:34.222Z,-87
2023-03-13T14:11:25.120Z,-87
2023-03-13T14:14:19.103Z,-87
2023-03-13T14:16:50.244Z,-86
2023-03-13T14:19:26.472Z,-87
2023-03-13T14:22:01.991Z,-85
2023-03-13T14:24:30.510Z,-85
2023-03-13T14:27:00.949Z,-86
2023-03-13T14:29:29.984Z,-86
2023-03-13T14:32:00.774Z,-86
2023-03-13T14:34:32.645Z,-87
2023-03-13T14:37:17.709Z,-86
2023-03-13T14:39:48.913Z,-86
2023-03-13T14:42:20.907Z,-86
2023-03-13T14:44:50.609Z,-86
2023-03-13T14:47:26.238Z,-86
2023-03-13T14:50:00.290Z,-86
2023-03-13T14:52:31.239Z,-87
2023-03-13T14:55:04.285Z,-86
2023-03-13T14:57:36.201Z,-86
2023-03-13T15:00:34.520Z,-86
2023-03-13T15:03:57.843Z,-86
2023-03-13T15:06:27.072Z,-86
2023-03-13T15:09:20.224Z,-85
2023-03-13T15:12:00.881Z,-85
2023-03-13T15:14:43.612Z,-86
2023-03-13T15:17:19.266Z,-86
2023-03-13T15:19:54.009Z,-86
2023-03-13T15:22:29.643Z,-85
2023-03-13T15:25:07.494Z,-85
2023-03-13T15:27:36.787Z,-86
2023-03-13T15:30:08.526Z,-85
2023-03-13T15:32:42.634Z,-84
2023-03-13T15:35:28.360Z,-85
2023-03-13T15:37:57.588Z,-85
2023-03-13T15:40:27.463Z,-85
2023-03-13T15:42:56.852Z,-84
2023-03-13T15:45:26.749Z,-84
2023-03-13T15:47:55.490Z,-85
2023-03-13T15:50:29.729Z,-85
2023-03-13T15:53:00.770Z,-85
2023-03-13T15:55:31.146Z,-86
2023-03-13T15:57:59.678Z,-85
2023-03-13T16:00:29.913Z,-85
2023-03-13T16:02:59.763Z,-85
2023-03-13T16:05:29.157Z,-85
2023-03-13T16:07:58.031Z,-85
2023-03-13T16:10:30.611Z,-85
2023-03-13T16:12:59.358Z,-85
2023-03-13T16:15:29.309Z,-85
2023-03-13T16:17:57.858Z,-85
2023-03-13T16:20:27.051Z,-86
2023-03-13T16:22:55.637Z,-86
2023-03-13T16:25:25.483Z,-86
2023-03-13T16:27:56.351Z,-86
2023-03-13T16:30:30.693Z,-86
2023-03-13T16:32:59.674Z,-85
2023-03-13T16:35:30.520Z,-85
2023-03-13T16:38:00.040Z,-85
2023-03-13T16:40:32.706Z,-84
2023-03-13T16:43:01.873Z,-84
2023-03-13T16:45:32.172Z,-83
2023-03-13T16:48:00.774Z,-84
2023-03-13T16:50:34.155Z,-85
2023-03-13T16:53:03.046Z,-85
2023-03-13T16:55:36.761Z,-85
2023-03-13T16:58:06.311Z,-84
2023-03-13T17:00:36.786Z,-85
2023-03-13T17:03:05.817Z,-85
2023-03-13T17:05:34.436Z,-85
2023-03-13T17:08:04.128Z,-85
2023-03-13T17:10:34.664Z,-85
2023-03-13T17:13:05.640Z,-85
2023-03-13T17:15:36.212Z,-86
2023-03-13T17:18:05.164Z,-86
2023-03-13T17:20:33.838Z,-86
2023-03-13T17:23:02.630Z,-86
2023-03-13T17:25:31.546Z,-84
2023-03-13T17:28:00.413Z,-84
2023-03-13T17:30:31.810Z,-84
2023-03-13T17:33:01.785Z,-85
2023-03-13T17:35:30.368Z,-84
2023-03-13T17:37:59.086Z,-85
2023-03-13T17:40:31.521Z,-88
2023-03-13T17:43:00.379Z,-88
2023-03-13T17:45:30.671Z,-90
2023-03-13T17:47:59.328Z,-90
2023-03-13T17:50:30.051Z,-89
2023-03-13T17:52:58.757Z,-89
2023-03-13T17:55:27.271Z,-89
2023-03-13T17:57:56.025Z,-89
2023-03-13T18:00:29.306Z,-89
2023-03-13T18:02:59.255Z,-89
2023-03-13T18:05:31.124Z,-89
2023-03-13T18:07:59.786Z,-86
2023-03-13T18:10:31.555Z,-88
2023-03-13T18:13:00.122Z,-82
2023-03-13T18:15:28.942Z,-82
2023-03-13T18:17:57.450Z,-82
2023-03-13T18:20:32.485Z,-82
2023-03-13T18:23:01.099Z,-81
2023-03-13T18:25:30.705Z,-82
2023-03-13T18:27:59.719Z,-83
2023-03-13T18:30:29.718Z,-83
2023-03-13T18:32:58.323Z,-83
2023-03-13T18:35:27.049Z,-82
2023-03-13T18:37:57.223Z,-83
2023-03-13T18:40:28.815Z,-81
2023-03-13T18:42:57.515Z,-82
2023-03-13T18:45:28.271Z,-82
2023-03-13T18:47:56.996Z,-82
2023-03-13T18:50:28.652Z,-82
2023-03-13T18:53:01.206Z,-82
2023-03-13T18:55:32.575Z,-82
2023-03-13T18:58:01.147Z,-82
2023-03-13T19:00:32.048Z,-87
2023-03-13T19:03:00.556Z,-79
2023-03-13T19:05:29.208Z,-79
2023-03-13T19:07:59.129Z,-81
2023-03-13T19:10:31.776Z,-80
2023-03-13T19:13:00.344Z,-79
2023-03-13T19:15:31.698Z,-79
2023-03-13T19:18:03.465Z,-78
2023-03-13T19:20:32.551Z,-80
2023-03-13T19:23:02.489Z,-80
2023-03-13T19:25:30.987Z,-80
2023-03-13T19:27:59.426Z,-81
2023-03-13T19:30:28.623Z,-80
2023-03-13T19:32:57.202Z,-80
2023-03-13T19:35:25.808Z,-80
2023-03-13T19:37:54.424Z,-80
2023-03-13T19:40:28.674Z,-80
2023-03-13T19:42:57.168Z,-80
2023-03-13T19:45:26.446Z,-79
2023-03-13T19:47:55.228Z,-80
2023-03-13T19:50:27.850Z,-80
2023-03-13T19:52:56.368Z,-80
2023-03-13T19:55:26.300Z,-80
2023-03-13T19:57:54.796Z,-80
2023-03-13T20:00:28.032Z,-79
2023-03-13T20:02:56.548Z,-79
2023-03-13T20:05:27.240Z,-81
2023-03-13T20:07:55.991Z,-80
2023-03-13T20:10:26.351Z,-81
2023-03-13T20:12:55.045Z,-81
2023-03-13T20:15:23.493Z,-80
2023-03-13T20:17:52.281Z,-81
2023-03-13T20:20:21.086Z,-80
2023-03-13T20:22:49.624Z,-81
2023-03-13T20:25:18.417Z,-81
2023-03-13T20:27:48.340Z,-81
2023-03-13T20:30:17.247Z,-81
2023-03-13T20:32:58.484Z,-81
2023-03-13T20:35:29.506Z,-82
2023-03-13T20:38:00.002Z,-81
2023-03-13T20:40:28.697Z,-81
2023-03-13T20:42:59.711Z,-81
2023-03-13T20:45:29.674Z,-80
2023-03-13T20:47:58.854Z,-80
2023-03-13T20:50:27.823Z,-81
2023-03-13T20:52:56.832Z,-81
2023-03-13T20:55:25.329Z,-81
2023-03-13T20:57:53.834Z,-81
2023-03-13T21:00:24.635Z,-82
2023-03-13T21:02:54.339Z,-80
2023-03-13T21:05:22.850Z,-80
2023-03-13T21:07:51.436Z,-81
2023-03-13T21:10:20.804Z,-83
2023-03-13T21:12:49.498Z,-82
2023-03-13T21:15:18.568Z,-81
2023-03-13T21:17:48.456Z,-81
2023-03-13T21:20:16.950Z,-83
2023-03-13T21:22:45.591Z,-82
2023-03-13T21:25:14.558Z,-83
2023-03-13T21:27:44.779Z,-85
2023-03-13T21:30:20.665Z,-82
2023-03-13T21:32:50.649Z,-82
2023-03-13T21:35:19.721Z,-80
2023-03-13T21:37:48.262Z,-82
2023-03-13T21:40:16.781Z,-82
2023-03-13T21:42:45.315Z,-83
2023-03-13T21:45:13.897Z,-83
2023-03-13T21:47:42.323Z,-82
2023-03-13T21:50:13.706Z,-82
2023-03-13T21:52:42.503Z,-82
2023-03-13T21:55:13.768Z,-84
2023-03-13T21:57:42.498Z,-81
2023-03-13T22:00:14.231Z,-84
2023-03-13T22:02:43.355Z,-82
2023-03-13T22:05:13.358Z,-83
2023-03-13T22:07:42.099Z,-83
2023-03-13T22:10:12.615Z,-84
2023-03-13T22:12:41.171Z,-82
2023-03-13T22:15:12.017Z,-83
2023-03-13T22:17:40.605Z,-83
2023-03-13T22:20:12.981Z,-82
2023-03-13T22:22:41.529Z,-83
2023-03-13T22:25:10.896Z,-82
2023-03-13T22:27:39.536Z,-82
2023-03-13T22:30:10.173Z,-81
2023-03-13T22:32:38.895Z,-81
2023-03-13T22:35:09.060Z,-81
2023-03-13T22:37:39.269Z,-81
2023-03-13T22:40:09.448Z,-81
2023-03-13T22:42:37.898Z,-81
2023-03-13T22:45:07.938Z,-82
2023-03-13T22:47:36.404Z,-82
2023-03-13T22:50:05.470Z,-82
2023-03-13T22:52:33.983Z,-82
2023-03-13T22:55:04.884Z,-81
2023-03-13T22:57:33.667Z,-81
2023-03-13T23:00:02.157Z,-81
2023-03-13T23:02:30.699Z,-81
2023-03-13T23:05:01.233Z,-81
2023-03-13T23:07:32.367Z,-82
2023-03-13T23:10:01.361Z,-81
2023-03-13T23:12:31.262Z,-81
2023-03-13T23:15:02.204Z,-81
2023-03-13T23:17:33.722Z,-80
2023-03-13T23:20:02.539Z,-80
2023-03-13T23:22:32.970Z,-80
2023-03-13T23:25:02.016Z,-81
2023-03-13T23:27:33.089Z,-81
2023-03-13T23:30:04.227Z,-81
2023-03-13T23:32:36.983Z,-80
2023-03-13T23:35:06.977Z,-81
2023-03-13T23:37:35.778Z,-80
2023-03-13T23:40:08.279Z,-81
2023-03-13T23:42:38.899Z,-80
2023-03-13T23:45:09.249Z,-81
2023-03-13T23:47:37.877Z,-81
2023-03-13T23:50:07.551Z,-82
2023-03-13T23:52:36.716Z,-79
2023-03-13T23:55:06.231Z,-80
2023-03-13T23:57:37.387Z,-81
